sensor_id;sensor_type;location;lat;lon;timestamp;P1;durP1;ratioP1;P2;durP2;ratioP2
54263;SDS011;40178;53.042;6.406;2022-11-30T00:00:58;31.45;;;15.05;;
54263;SDS011;40178;53.042;6.406;2022-11-30T00:03:32;33.85;;;17.73;;
54263;SDS011;40178;53.042;6.406;2022-11-30T00:06:02;34.70;;;17.95;;
54263;SDS011;40178;53.042;6.406;2022-11-30T00:08:28;35.65;;;16.95;;
54263;SDS011;40178;53.042;6.406;2022-11-30T00:10:54;41.53;;;19.20;;
54263;SDS011;40178;53.042;6.406;2022-11-30T00:13:19;35.65;;;17.85;;
54263;SDS011;40178;53.042;6.406;2022-11-30T00:15:45;34.47;;;16.83;;
54263;SDS011;40178;53.042;6.406;2022-11-30T00:18:11;32.58;;;16.17;;
54263;SDS011;40178;53.042;6.406;2022-11-30T00:20:36;33.78;;;15.32;;
54263;SDS011;40178;53.042;6.406;2022-11-30T00:23:02;32.10;;;16.42;;
54263;SDS011;40178;53.042;6.406;2022-11-30T00:25:27;36.47;;;18.35;;
54263;SDS011;40178;53.042;6.406;2022-11-30T00:27:53;37.03;;;15.63;;
54263;SDS011;40178;53.042;6.406;2022-11-30T00:30:18;30.48;;;14.23;;
54263;SDS011;40178;53.042;6.406;2022-11-30T00:32:44;30.05;;;14.35;;
54263;SDS011;40178;53.042;6.406;2022-11-30T00:35:10;28.75;;;14.35;;
54263;SDS011;40178;53.042;6.406;2022-11-30T00:37:35;31.50;;;14.40;;
54263;SDS011;40178;53.042;6.406;2022-11-30T00:40:01;29.27;;;15.57;;
54263;SDS011;40178;53.042;6.406;2022-11-30T00:42:27;40.85;;;17.73;;
54263;SDS011;40178;53.042;6.406;2022-11-30T00:44:52;47.05;;;17.30;;
54263;SDS011;40178;53.042;6.406;2022-11-30T00:47:18;37.33;;;16.38;;
54263;SDS011;40178;53.042;6.406;2022-11-30T00:49:43;30.17;;;16.30;;
54263;SDS011;40178;53.042;6.406;2022-11-30T00:52:09;35.05;;;18.27;;
54263;SDS011;40178;53.042;6.406;2022-11-30T00:54:34;37.17;;;16.85;;
54263;SDS011;40178;53.042;6.406;2022-11-30T00:57:00;34.25;;;17.08;;
54263;SDS011;40178;53.042;6.406;2022-11-30T00:59:26;34.45;;;15.90;;
54263;SDS011;40178;53.042;6.406;2022-11-30T01:01:52;33.65;;;17.65;;
54263;SDS011;40178;53.042;6.406;2022-11-30T01:04:19;32.53;;;16.00;;
54263;SDS011;40178;53.042;6.406;2022-11-30T01:06:44;32.50;;;15.77;;
54263;SDS011;40178;53.042;6.406;2022-11-30T01:09:10;38.28;;;17.83;;
54263;SDS011;40178;53.042;6.406;2022-11-30T01:11:36;34.92;;;17.42;;
54263;SDS011;40178;53.042;6.406;2022-11-30T01:14:01;31.77;;;16.27;;
54263;SDS011;40178;53.042;6.406;2022-11-30T01:16:28;33.15;;;16.98;;
54263;SDS011;40178;53.042;6.406;2022-11-30T01:18:55;38.42;;;18.50;;
54263;SDS011;40178;53.042;6.406;2022-11-30T01:21:22;36.55;;;18.33;;
54263;SDS011;40178;53.042;6.406;2022-11-30T01:23:50;38.35;;;18.45;;
54263;SDS011;40178;53.042;6.406;2022-11-30T01:26:16;38.65;;;18.08;;
54263;SDS011;40178;53.042;6.406;2022-11-30T01:28:42;40.60;;;18.38;;
54263;SDS011;40178;53.042;6.406;2022-11-30T01:31:09;36.30;;;17.50;;
54263;SDS011;40178;53.042;6.406;2022-11-30T01:33:37;39.63;;;19.95;;
54263;SDS011;40178;53.042;6.406;2022-11-30T01:36:13;40.28;;;19.48;;
54263;SDS011;40178;53.042;6.406;2022-11-30T01:38:42;40.78;;;18.77;;
54263;SDS011;40178;53.042;6.406;2022-11-30T01:41:14;36.65;;;18.00;;
54263;SDS011;40178;53.042;6.406;2022-11-30T01:43:50;36.13;;;18.25;;
54263;SDS011;40178;53.042;6.406;2022-11-30T01:48:46;40.17;;;20.40;;
54263;SDS011;40178;53.042;6.406;2022-11-30T01:51:19;38.25;;;17.60;;
54263;SDS011;40178;53.042;6.406;2022-11-30T01:53:45;34.78;;;17.02;;
54263;SDS011;40178;53.042;6.406;2022-11-30T01:56:10;34.45;;;16.55;;
54263;SDS011;40178;53.042;6.406;2022-11-30T01:58:36;35.83;;;18.13;;
54263;SDS011;40178;53.042;6.406;2022-11-30T02:01:02;35.30;;;18.80;;
54263;SDS011;40178;53.042;6.406;2022-11-30T02:03:32;36.08;;;18.85;;
54263;SDS011;40178;53.042;6.406;2022-11-30T02:06:03;33.72;;;17.70;;
54263;SDS011;40178;53.042;6.406;2022-11-30T02:08:29;34.92;;;17.63;;
54263;SDS011;40178;53.042;6.406;2022-11-30T02:10:57;36.92;;;19.20;;
54263;SDS011;40178;53.042;6.406;2022-11-30T02:13:40;38.40;;;19.13;;
54263;SDS011;40178;53.042;6.406;2022-11-30T02:16:36;40.58;;;19.50;;
54263;SDS011;40178;53.042;6.406;2022-11-30T02:19:34;37.20;;;18.98;;
54263;SDS011;40178;53.042;6.406;2022-11-30T02:22:27;35.38;;;18.27;;
54263;SDS011;40178;53.042;6.406;2022-11-30T02:27:44;39.45;;;18.80;;
54263;SDS011;40178;53.042;6.406;2022-11-30T02:30:25;39.53;;;20.20;;
54263;SDS011;40178;53.042;6.406;2022-11-30T02:32:56;38.20;;;19.95;;
54263;SDS011;40178;53.042;6.406;2022-11-30T02:35:26;40.95;;;20.58;;
54263;SDS011;40178;53.042;6.406;2022-11-30T02:37:57;42.08;;;20.60;;
54263;SDS011;40178;53.042;6.406;2022-11-30T02:40:25;39.97;;;20.05;;
54263;SDS011;40178;53.042;6.406;2022-11-30T02:42:51;42.80;;;20.13;;
54263;SDS011;40178;53.042;6.406;2022-11-30T02:45:19;39.92;;;19.48;;
54263;SDS011;40178;53.042;6.406;2022-11-30T02:50:36;40.15;;;20.05;;
54263;SDS011;40178;53.042;6.406;2022-11-30T02:53:09;44.03;;;20.00;;
54263;SDS011;40178;53.042;6.406;2022-11-30T02:55:35;40.67;;;20.58;;
54263;SDS011;40178;53.042;6.406;2022-11-30T02:58:01;43.33;;;21.65;;
54263;SDS011;40178;53.042;6.406;2022-11-30T03:00:27;39.92;;;20.65;;
54263;SDS011;40178;53.042;6.406;2022-11-30T03:02:52;38.47;;;19.50;;
54263;SDS011;40178;53.042;6.406;2022-11-30T03:05:19;43.22;;;20.90;;
54263;SDS011;40178;53.042;6.406;2022-11-30T03:07:44;42.13;;;20.40;;
54263;SDS011;40178;53.042;6.406;2022-11-30T03:10:10;38.67;;;19.40;;
54263;SDS011;40178;53.042;6.406;2022-11-30T03:12:35;37.55;;;18.75;;
54263;SDS011;40178;53.042;6.406;2022-11-30T03:15:02;39.45;;;19.52;;
54263;SDS011;40178;53.042;6.406;2022-11-30T03:17:28;36.33;;;19.08;;
54263;SDS011;40178;53.042;6.406;2022-11-30T03:19:54;34.25;;;18.45;;
54263;SDS011;40178;53.042;6.406;2022-11-30T03:22:19;40.97;;;20.65;;
54263;SDS011;40178;53.042;6.406;2022-11-30T03:24:45;34.92;;;18.73;;
54263;SDS011;40178;53.042;6.406;2022-11-30T03:27:10;33.17;;;17.05;;
54263;SDS011;40178;53.042;6.406;2022-11-30T03:29:36;40.97;;;19.20;;
54263;SDS011;40178;53.042;6.406;2022-11-30T03:32:03;44.78;;;20.58;;
54263;SDS011;40178;53.042;6.406;2022-11-30T03:34:29;38.95;;;19.95;;
54263;SDS011;40178;53.042;6.406;2022-11-30T03:36:55;38.65;;;18.15;;
54263;SDS011;40178;53.042;6.406;2022-11-30T03:39:21;36.95;;;18.42;;
54263;SDS011;40178;53.042;6.406;2022-11-30T03:41:48;43.65;;;19.08;;
54263;SDS011;40178;53.042;6.406;2022-11-30T03:44:14;39.85;;;18.42;;
54263;SDS011;40178;53.042;6.406;2022-11-30T03:46:39;38.00;;;19.02;;
54263;SDS011;40178;53.042;6.406;2022-11-30T03:49:05;39.72;;;18.55;;
54263;SDS011;40178;53.042;6.406;2022-11-30T03:51:31;41.60;;;19.58;;
54263;SDS011;40178;53.042;6.406;2022-11-30T03:53:56;42.08;;;20.02;;
54263;SDS011;40178;53.042;6.406;2022-11-30T03:56:22;39.90;;;19.00;;
54263;SDS011;40178;53.042;6.406;2022-11-30T03:58:48;41.38;;;19.75;;
54263;SDS011;40178;53.042;6.406;2022-11-30T04:01:15;43.97;;;20.52;;
54263;SDS011;40178;53.042;6.406;2022-11-30T04:03:43;46.20;;;21.20;;
54263;SDS011;40178;53.042;6.406;2022-11-30T04:06:09;46.65;;;21.98;;
54263;SDS011;40178;53.042;6.406;2022-11-30T04:08:36;44.83;;;20.88;;
54263;SDS011;40178;53.042;6.406;2022-11-30T04:11:03;45.53;;;20.00;;
54263;SDS011;40178;53.042;6.406;2022-11-30T04:13:29;44.08;;;21.52;;
54263;SDS011;40178;53.042;6.406;2022-11-30T04:15:56;41.45;;;21.02;;
54263;SDS011;40178;53.042;6.406;2022-11-30T04:18:23;44.78;;;21.23;;
54263;SDS011;40178;53.042;6.406;2022-11-30T04:20:50;44.45;;;21.10;;
54263;SDS011;40178;53.042;6.406;2022-11-30T04:23:17;41.90;;;20.30;;
54263;SDS011;40178;53.042;6.406;2022-11-30T04:25:43;45.33;;;21.30;;
54263;SDS011;40178;53.042;6.406;2022-11-30T04:28:09;42.05;;;20.25;;
54263;SDS011;40178;53.042;6.406;2022-11-30T04:30:35;40.55;;;19.60;;
54263;SDS011;40178;53.042;6.406;2022-11-30T04:33:02;47.47;;;21.20;;
54263;SDS011;40178;53.042;6.406;2022-11-30T04:35:28;39.17;;;19.70;;
54263;SDS011;40178;53.042;6.406;2022-11-30T04:37:54;52.22;;;22.70;;
54263;SDS011;40178;53.042;6.406;2022-11-30T04:40:19;45.85;;;20.42;;
54263;SDS011;40178;53.042;6.406;2022-11-30T04:42:45;43.65;;;21.60;;
54263;SDS011;40178;53.042;6.406;2022-11-30T04:45:11;41.33;;;20.10;;
54263;SDS011;40178;53.042;6.406;2022-11-30T04:47:37;43.17;;;20.98;;
54263;SDS011;40178;53.042;6.406;2022-11-30T04:50:04;40.60;;;18.55;;
54263;SDS011;40178;53.042;6.406;2022-11-30T04:52:30;46.10;;;20.58;;
54263;SDS011;40178;53.042;6.406;2022-11-30T04:54:56;51.75;;;21.77;;
54263;SDS011;40178;53.042;6.406;2022-11-30T04:57:21;45.97;;;21.80;;
54263;SDS011;40178;53.042;6.406;2022-11-30T04:59:47;46.65;;;22.67;;
54263;SDS011;40178;53.042;6.406;2022-11-30T05:02:13;42.65;;;20.45;;
54263;SDS011;40178;53.042;6.406;2022-11-30T05:04:39;47.08;;;22.55;;
54263;SDS011;40178;53.042;6.406;2022-11-30T05:07:04;44.83;;;21.80;;
54263;SDS011;40178;53.042;6.406;2022-11-30T05:09:30;37.95;;;20.10;;
54263;SDS011;40178;53.042;6.406;2022-11-30T05:11:56;45.42;;;20.42;;
54263;SDS011;40178;53.042;6.406;2022-11-30T05:14:22;44.20;;;22.00;;
54263;SDS011;40178;53.042;6.406;2022-11-30T05:16:48;38.70;;;19.95;;
54263;SDS011;40178;53.042;6.406;2022-11-30T05:19:13;44.75;;;21.35;;
54263;SDS011;40178;53.042;6.406;2022-11-30T05:21:40;43.97;;;21.77;;
54263;SDS011;40178;53.042;6.406;2022-11-30T05:24:06;38.10;;;19.67;;
54263;SDS011;40178;53.042;6.406;2022-11-30T05:26:32;43.78;;;20.15;;
54263;SDS011;40178;53.042;6.406;2022-11-30T05:28:59;40.67;;;19.48;;
54263;SDS011;40178;53.042;6.406;2022-11-30T05:31:25;48.92;;;21.95;;
54263;SDS011;40178;53.042;6.406;2022-11-30T05:33:51;41.50;;;19.92;;
54263;SDS011;40178;53.042;6.406;2022-11-30T05:36:18;40.78;;;19.30;;
54263;SDS011;40178;53.042;6.406;2022-11-30T05:38:44;39.50;;;19.35;;
54263;SDS011;40178;53.042;6.406;2022-11-30T05:41:10;42.60;;;19.20;;
54263;SDS011;40178;53.042;6.406;2022-11-30T05:43:36;48.10;;;22.50;;
54263;SDS011;40178;53.042;6.406;2022-11-30T05:46:02;46.17;;;20.88;;
54263;SDS011;40178;53.042;6.406;2022-11-30T05:48:30;45.65;;;20.92;;
54263;SDS011;40178;53.042;6.406;2022-11-30T05:51:03;37.90;;;18.48;;
54263;SDS011;40178;53.042;6.406;2022-11-30T05:53:29;40.92;;;20.20;;
54263;SDS011;40178;53.042;6.406;2022-11-30T05:55:55;42.13;;;19.42;;
54263;SDS011;40178;53.042;6.406;2022-11-30T05:58:21;41.08;;;19.73;;
54263;SDS011;40178;53.042;6.406;2022-11-30T06:00:46;43.65;;;21.15;;
54263;SDS011;40178;53.042;6.406;2022-11-30T06:03:12;37.63;;;18.33;;
54263;SDS011;40178;53.042;6.406;2022-11-30T06:05:37;42.53;;;19.25;;
54263;SDS011;40178;53.042;6.406;2022-11-30T06:08:03;41.45;;;19.77;;
54263;SDS011;40178;53.042;6.406;2022-11-30T06:10:29;44.53;;;20.83;;
54263;SDS011;40178;53.042;6.406;2022-11-30T06:12:54;42.60;;;19.65;;
54263;SDS011;40178;53.042;6.406;2022-11-30T06:15:20;48.92;;;20.67;;
54263;SDS011;40178;53.042;6.406;2022-11-30T06:17:45;43.70;;;20.40;;
54263;SDS011;40178;53.042;6.406;2022-11-30T06:20:11;39.10;;;19.98;;
54263;SDS011;40178;53.042;6.406;2022-11-30T06:22:37;47.17;;;21.42;;
54263;SDS011;40178;53.042;6.406;2022-11-30T06:25:03;43.58;;;20.90;;
54263;SDS011;40178;53.042;6.406;2022-11-30T06:27:29;47.53;;;22.08;;
54263;SDS011;40178;53.042;6.406;2022-11-30T06:29:56;43.28;;;20.25;;
54263;SDS011;40178;53.042;6.406;2022-11-30T06:32:21;42.20;;;19.42;;
54263;SDS011;40178;53.042;6.406;2022-11-30T06:34:47;45.20;;;18.98;;
54263;SDS011;40178;53.042;6.406;2022-11-30T06:37:12;39.50;;;18.45;;
54263;SDS011;40178;53.042;6.406;2022-11-30T06:39:38;43.90;;;18.85;;
54263;SDS011;40178;53.042;6.406;2022-11-30T06:42:03;50.28;;;20.00;;
54263;SDS011;40178;53.042;6.406;2022-11-30T06:44:29;45.40;;;19.23;;
54263;SDS011;40178;53.042;6.406;2022-11-30T06:46:54;47.88;;;20.10;;
54263;SDS011;40178;53.042;6.406;2022-11-30T06:49:20;47.00;;;20.27;;
54263;SDS011;40178;53.042;6.406;2022-11-30T06:51:46;44.75;;;19.48;;
54263;SDS011;40178;53.042;6.406;2022-11-30T06:54:12;47.13;;;21.52;;
54263;SDS011;40178;53.042;6.406;2022-11-30T06:56:37;52.85;;;21.23;;
54263;SDS011;40178;53.042;6.406;2022-11-30T06:59:03;48.25;;;19.58;;
54263;SDS011;40178;53.042;6.406;2022-11-30T07:01:28;52.50;;;22.10;;
54263;SDS011;40178;53.042;6.406;2022-11-30T07:03:54;52.72;;;21.42;;
54263;SDS011;40178;53.042;6.406;2022-11-30T07:06:19;47.35;;;20.15;;
54263;SDS011;40178;53.042;6.406;2022-11-30T07:08:45;42.13;;;18.95;;
54263;SDS011;40178;53.042;6.406;2022-11-30T07:11:11;46.97;;;19.83;;
54263;SDS011;40178;53.042;6.406;2022-11-30T07:13:37;39.58;;;19.08;;
54263;SDS011;40178;53.042;6.406;2022-11-30T07:16:03;45.30;;;19.02;;
54263;SDS011;40178;53.042;6.406;2022-11-30T07:18:30;43.72;;;18.95;;
54263;SDS011;40178;53.042;6.406;2022-11-30T07:20:57;39.08;;;17.90;;
54263;SDS011;40178;53.042;6.406;2022-11-30T07:23:27;39.03;;;16.35;;
54263;SDS011;40178;53.042;6.406;2022-11-30T07:26:12;40.50;;;18.23;;
54263;SDS011;40178;53.042;6.406;2022-11-30T07:28:38;40.40;;;17.30;;
54263;SDS011;40178;53.042;6.406;2022-11-30T07:31:20;37.50;;;17.92;;
54263;SDS011;40178;53.042;6.406;2022-11-30T07:33:50;38.53;;;17.42;;
54263;SDS011;40178;53.042;6.406;2022-11-30T07:36:17;37.55;;;17.75;;
54263;SDS011;40178;53.042;6.406;2022-11-30T07:38:44;38.42;;;17.60;;
54263;SDS011;40178;53.042;6.406;2022-11-30T07:41:10;35.28;;;15.90;;
54263;SDS011;40178;53.042;6.406;2022-11-30T07:43:36;32.33;;;15.25;;
54263;SDS011;40178;53.042;6.406;2022-11-30T07:46:02;32.30;;;16.33;;
54263;SDS011;40178;53.042;6.406;2022-11-30T07:48:28;36.38;;;16.55;;
54263;SDS011;40178;53.042;6.406;2022-11-30T07:51:00;40.97;;;17.30;;
54263;SDS011;40178;53.042;6.406;2022-11-30T07:53:27;35.70;;;16.00;;
54263;SDS011;40178;53.042;6.406;2022-11-30T07:55:52;35.30;;;16.23;;
54263;SDS011;40178;53.042;6.406;2022-11-30T07:58:18;31.50;;;15.93;;
54263;SDS011;40178;53.042;6.406;2022-11-30T08:00:43;33.53;;;16.85;;
54263;SDS011;40178;53.042;6.406;2022-11-30T08:03:09;34.55;;;16.60;;
54263;SDS011;40178;53.042;6.406;2022-11-30T08:05:35;33.15;;;16.58;;
54263;SDS011;40178;53.042;6.406;2022-11-30T08:08:00;34.20;;;17.08;;
54263;SDS011;40178;53.042;6.406;2022-11-30T08:10:26;33.90;;;16.42;;
54263;SDS011;40178;53.042;6.406;2022-11-30T08:12:52;31.80;;;15.73;;
54263;SDS011;40178;53.042;6.406;2022-11-30T08:15:17;31.95;;;15.80;;
54263;SDS011;40178;53.042;6.406;2022-11-30T08:17:43;34.40;;;16.25;;
54263;SDS011;40178;53.042;6.406;2022-11-30T08:20:09;35.15;;;16.15;;
54263;SDS011;40178;53.042;6.406;2022-11-30T08:22:35;30.60;;;15.80;;
54263;SDS011;40178;53.042;6.406;2022-11-30T08:25:01;34.90;;;15.60;;
54263;SDS011;40178;53.042;6.406;2022-11-30T08:27:27;31.98;;;14.60;;
54263;SDS011;40178;53.042;6.406;2022-11-30T08:29:52;34.17;;;15.95;;
54263;SDS011;40178;53.042;6.406;2022-11-30T08:32:18;33.20;;;15.82;;
54263;SDS011;40178;53.042;6.406;2022-11-30T08:34:43;34.20;;;16.27;;
54263;SDS011;40178;53.042;6.406;2022-11-30T08:37:09;33.05;;;15.38;;
54263;SDS011;40178;53.042;6.406;2022-11-30T08:39:35;35.47;;;15.82;;
54263;SDS011;40178;53.042;6.406;2022-11-30T08:42:01;31.23;;;16.52;;
54263;SDS011;40178;53.042;6.406;2022-11-30T08:44:27;28.60;;;15.65;;
54263;SDS011;40178;53.042;6.406;2022-11-30T08:46:53;26.70;;;14.65;;
54263;SDS011;40178;53.042;6.406;2022-11-30T08:49:19;32.55;;;15.68;;
54263;SDS011;40178;53.042;6.406;2022-11-30T08:51:45;30.73;;;14.98;;
54263;SDS011;40178;53.042;6.406;2022-11-30T08:54:11;35.47;;;16.52;;
54263;SDS011;40178;53.042;6.406;2022-11-30T08:56:37;27.27;;;14.07;;
54263;SDS011;40178;53.042;6.406;2022-11-30T08:59:03;30.70;;;14.95;;
54263;SDS011;40178;53.042;6.406;2022-11-30T09:01:28;29.77;;;14.25;;
54263;SDS011;40178;53.042;6.406;2022-11-30T09:03:54;29.20;;;15.15;;
54263;SDS011;40178;53.042;6.406;2022-11-30T09:06:24;28.02;;;14.13;;
54263;SDS011;40178;53.042;6.406;2022-11-30T09:08:55;28.77;;;14.05;;
54263;SDS011;40178;53.042;6.406;2022-11-30T09:13:56;27.13;;;13.63;;
54263;SDS011;40178;53.042;6.406;2022-11-30T09:16:23;26.92;;;13.88;;
54263;SDS011;40178;53.042;6.406;2022-11-30T09:18:50;29.30;;;14.77;;
54263;SDS011;40178;53.042;6.406;2022-11-30T09:21:17;29.20;;;15.07;;
54263;SDS011;40178;53.042;6.406;2022-11-30T09:23:45;25.10;;;13.95;;
54263;SDS011;40178;53.042;6.406;2022-11-30T09:26:12;27.00;;;13.75;;
54263;SDS011;40178;53.042;6.406;2022-11-30T09:28:40;29.25;;;14.55;;
54263;SDS011;40178;53.042;6.406;2022-11-30T09:31:07;29.23;;;15.10;;
54263;SDS011;40178;53.042;6.406;2022-11-30T09:33:36;26.65;;;14.88;;
54263;SDS011;40178;53.042;6.406;2022-11-30T09:36:03;28.15;;;14.80;;
54263;SDS011;40178;53.042;6.406;2022-11-30T09:38:31;28.88;;;15.05;;
54263;SDS011;40178;53.042;6.406;2022-11-30T09:40:58;31.20;;;15.43;;
54263;SDS011;40178;53.042;6.406;2022-11-30T09:43:44;29.00;;;16.33;;
54263;SDS011;40178;53.042;6.406;2022-11-30T09:46:35;30.92;;;14.70;;
54263;SDS011;40178;53.042;6.406;2022-11-30T09:49:18;33.30;;;15.70;;
54263;SDS011;40178;53.042;6.406;2022-11-30T09:51:47;32.45;;;15.77;;
54263;SDS011;40178;53.042;6.406;2022-11-30T09:54:19;32.85;;;14.85;;
54263;SDS011;40178;53.042;6.406;2022-11-30T09:56:47;30.85;;;15.27;;
54263;SDS011;40178;53.042;6.406;2022-11-30T09:59:20;32.22;;;14.98;;
54263;SDS011;40178;53.042;6.406;2022-11-30T10:01:50;32.05;;;15.52;;
54263;SDS011;40178;53.042;6.406;2022-11-30T10:04:21;29.73;;;15.32;;
54263;SDS011;40178;53.042;6.406;2022-11-30T10:12:03;30.85;;;15.73;;
54263;SDS011;40178;53.042;6.406;2022-11-30T10:14:44;33.13;;;16.95;;
54263;SDS011;40178;53.042;6.406;2022-11-30T10:22:32;33.00;;;16.58;;
54263;SDS011;40178;53.042;6.406;2022-11-30T10:25:23;34.42;;;16.63;;
54263;SDS011;40178;53.042;6.406;2022-11-30T10:27:58;34.78;;;17.10;;
54263;SDS011;40178;53.042;6.406;2022-11-30T10:30:42;35.58;;;16.35;;
54263;SDS011;40178;53.042;6.406;2022-11-30T10:33:12;35.03;;;17.77;;
54263;SDS011;40178;53.042;6.406;2022-11-30T10:35:43;34.67;;;17.30;;
54263;SDS011;40178;53.042;6.406;2022-11-30T10:40:50;34.53;;;17.63;;
54263;SDS011;40178;53.042;6.406;2022-11-30T10:43:31;34.42;;;16.95;;
54263;SDS011;40178;53.042;6.406;2022-11-30T10:46:02;34.65;;;17.08;;
54263;SDS011;40178;53.042;6.406;2022-11-30T10:48:42;34.90;;;17.70;;
54263;SDS011;40178;53.042;6.406;2022-11-30T10:51:18;33.72;;;16.50;;
54263;SDS011;40178;53.042;6.406;2022-11-30T10:53:44;36.67;;;16.95;;
54263;SDS011;40178;53.042;6.406;2022-11-30T10:56:10;35.55;;;16.88;;
54263;SDS011;40178;53.042;6.406;2022-11-30T10:58:38;34.38;;;17.33;;
54263;SDS011;40178;53.042;6.406;2022-11-30T11:01:08;32.80;;;16.65;;
54263;SDS011;40178;53.042;6.406;2022-11-30T11:03:36;33.80;;;18.00;;
54263;SDS011;40178;53.042;6.406;2022-11-30T11:08:46;33.50;;;17.02;;
54263;SDS011;40178;53.042;6.406;2022-11-30T11:14:14;32.30;;;15.90;;
54263;SDS011;40178;53.042;6.406;2022-11-30T11:16:48;34.75;;;16.05;;
54263;SDS011;40178;53.042;6.406;2022-11-30T11:19:24;35.08;;;17.67;;
54263;SDS011;40178;53.042;6.406;2022-11-30T11:24:42;30.42;;;15.68;;
54263;SDS011;40178;53.042;6.406;2022-11-30T11:27:18;29.70;;;16.73;;
54263;SDS011;40178;53.042;6.406;2022-11-30T11:29:56;35.58;;;17.27;;
54263;SDS011;40178;53.042;6.406;2022-11-30T11:32:55;33.92;;;16.42;;
54263;SDS011;40178;53.042;6.406;2022-11-30T11:35:31;30.80;;;15.95;;
54263;SDS011;40178;53.042;6.406;2022-11-30T11:38:00;31.27;;;16.85;;
54263;SDS011;40178;53.042;6.406;2022-11-30T11:40:26;34.30;;;17.25;;
54263;SDS011;40178;53.042;6.406;2022-11-30T11:42:52;33.40;;;16.30;;
54263;SDS011;40178;53.042;6.406;2022-11-30T11:45:20;29.23;;;15.05;;
54263;SDS011;40178;53.042;6.406;2022-11-30T11:47:56;31.58;;;17.70;;
54263;SDS011;40178;53.042;6.406;2022-11-30T11:50:28;34.92;;;17.73;;
54263;SDS011;40178;53.042;6.406;2022-11-30T11:53:15;29.23;;;15.90;;
54263;SDS011;40178;53.042;6.406;2022-11-30T11:55:53;30.55;;;15.80;;
54263;SDS011;40178;53.042;6.406;2022-11-30T12:01:39;29.95;;;15.20;;
54263;SDS011;40178;53.042;6.406;2022-11-30T12:06:51;29.65;;;16.45;;
54263;SDS011;40178;53.042;6.406;2022-11-30T12:09:21;28.58;;;15.15;;
54263;SDS011;40178;53.042;6.406;2022-11-30T12:11:55;26.98;;;14.73;;
54263;SDS011;40178;53.042;6.406;2022-11-30T12:14:20;25.90;;;14.43;;
54263;SDS011;40178;53.042;6.406;2022-11-30T12:19:21;29.42;;;17.15;;
54263;SDS011;40178;53.042;6.406;2022-11-30T12:22:02;33.28;;;17.42;;
54263;SDS011;40178;53.042;6.406;2022-11-30T12:24:41;32.97;;;16.92;;
54263;SDS011;40178;53.042;6.406;2022-11-30T12:30:16;31.75;;;16.25;;
54263;SDS011;40178;53.042;6.406;2022-11-30T12:37:01;35.92;;;16.80;;
54263;SDS011;40178;53.042;6.406;2022-11-30T12:38:57;38.63;;;19.40;;
54263;SDS011;40178;53.042;6.406;2022-11-30T12:57:54;33.97;;;17.65;;
54263;SDS011;40178;53.042;6.406;2022-11-30T13:11:27;34.88;;;18.10;;
54263;SDS011;40178;53.042;6.406;2022-11-30T13:13:56;34.15;;;18.02;;
54263;SDS011;40178;53.042;6.406;2022-11-30T13:16:23;34.30;;;16.77;;
54263;SDS011;40178;53.042;6.406;2022-11-30T13:18:50;30.48;;;16.55;;
54263;SDS011;40178;53.042;6.406;2022-11-30T13:21:24;33.47;;;17.23;;
54263;SDS011;40178;53.042;6.406;2022-11-30T13:27:12;33.67;;;17.35;;
54263;SDS011;40178;53.042;6.406;2022-11-30T13:32:33;33.88;;;18.10;;
54263;SDS011;40178;53.042;6.406;2022-11-30T13:40:39;34.63;;;17.67;;
54263;SDS011;40178;53.042;6.406;2022-11-30T13:43:12;35.88;;;18.40;;
54263;SDS011;40178;53.042;6.406;2022-11-30T13:45:40;33.67;;;17.70;;
54263;SDS011;40178;53.042;6.406;2022-11-30T13:48:16;36.15;;;18.55;;
54263;SDS011;40178;53.042;6.406;2022-11-30T13:50:56;32.22;;;16.40;;
54263;SDS011;40178;53.042;6.406;2022-11-30T13:53:23;37.33;;;18.40;;
54263;SDS011;40178;53.042;6.406;2022-11-30T13:58:24;39.60;;;18.70;;
54263;SDS011;40178;53.042;6.406;2022-11-30T14:01:04;34.03;;;17.55;;
54263;SDS011;40178;53.042;6.406;2022-11-30T14:09:53;37.78;;;19.58;;
54263;SDS011;40178;53.042;6.406;2022-11-30T14:14:59;39.20;;;19.95;;
54263;SDS011;40178;53.042;6.406;2022-11-30T14:17:25;42.20;;;21.42;;
54263;SDS011;40178;53.042;6.406;2022-11-30T14:20:07;43.45;;;20.83;;
54263;SDS011;40178;53.042;6.406;2022-11-30T14:22:40;42.45;;;21.42;;
54263;SDS011;40178;53.042;6.406;2022-11-30T14:25:11;40.75;;;20.73;;
54263;SDS011;40178;53.042;6.406;2022-11-30T14:27:38;42.97;;;21.17;;
54263;SDS011;40178;53.042;6.406;2022-11-30T14:30:04;43.53;;;21.88;;
54263;SDS011;40178;53.042;6.406;2022-11-30T14:35:04;40.88;;;21.02;;
54263;SDS011;40178;53.042;6.406;2022-11-30T14:37:39;46.85;;;21.55;;
54263;SDS011;40178;53.042;6.406;2022-11-30T14:40:17;42.38;;;21.00;;
54263;SDS011;40178;53.042;6.406;2022-11-30T14:43:17;45.50;;;22.48;;
54263;SDS011;40178;53.042;6.406;2022-11-30T14:45:39;50.72;;;23.70;;
54263;SDS011;40178;53.042;6.406;2022-11-30T14:48:06;40.85;;;21.92;;
54263;SDS011;40178;53.042;6.406;2022-11-30T14:50:35;45.72;;;24.13;;
54263;SDS011;40178;53.042;6.406;2022-11-30T14:55:59;42.45;;;21.98;;
54263;SDS011;40178;53.042;6.406;2022-11-30T14:58:47;46.15;;;21.58;;
54263;SDS011;40178;53.042;6.406;2022-11-30T15:03:50;43.45;;;21.80;;
54263;SDS011;40178;53.042;6.406;2022-11-30T15:06:18;48.28;;;24.67;;
54263;SDS011;40178;53.042;6.406;2022-11-30T15:08:50;48.08;;;23.88;;
54263;SDS011;40178;53.042;6.406;2022-11-30T15:11:18;48.60;;;22.95;;
54263;SDS011;40178;53.042;6.406;2022-11-30T15:13:48;46.60;;;23.27;;
54263;SDS011;40178;53.042;6.406;2022-11-30T15:18:48;51.70;;;24.02;;
54263;SDS011;40178;53.042;6.406;2022-11-30T15:21:19;48.10;;;23.42;;
54263;SDS011;40178;53.042;6.406;2022-11-30T15:23:50;48.40;;;23.75;;
54263;SDS011;40178;53.042;6.406;2022-11-30T15:26:19;48.47;;;23.80;;
54263;SDS011;40178;53.042;6.406;2022-11-30T15:29:05;46.53;;;22.70;;
54263;SDS011;40178;53.042;6.406;2022-11-30T15:31:38;48.38;;;23.92;;
54263;SDS011;40178;53.042;6.406;2022-11-30T15:34:15;44.03;;;23.20;;
54263;SDS011;40178;53.042;6.406;2022-11-30T15:36:43;45.15;;;22.92;;
54263;SDS011;40178;53.042;6.406;2022-11-30T15:39:15;44.55;;;21.92;;
54263;SDS011;40178;53.042;6.406;2022-11-30T15:41:45;47.50;;;21.33;;
54263;SDS011;40178;53.042;6.406;2022-11-30T15:44:55;49.33;;;21.42;;
54263;SDS011;40178;53.042;6.406;2022-11-30T15:47:00;45.80;;;21.92;;
54263;SDS011;40178;53.042;6.406;2022-11-30T15:49:27;45.88;;;22.02;;
54263;SDS011;40178;53.042;6.406;2022-11-30T15:57:17;52.30;;;23.58;;
54263;SDS011;40178;53.042;6.406;2022-11-30T15:59:43;47.90;;;21.75;;
54263;SDS011;40178;53.042;6.406;2022-11-30T16:02:26;50.83;;;23.73;;
54263;SDS011;40178;53.042;6.406;2022-11-30T16:07:31;47.35;;;22.27;;
54263;SDS011;40178;53.042;6.406;2022-11-30T16:12:37;50.20;;;22.42;;
54263;SDS011;40178;53.042;6.406;2022-11-30T16:15:14;50.03;;;23.55;;
54263;SDS011;40178;53.042;6.406;2022-11-30T16:18:39;54.13;;;23.50;;
54263;SDS011;40178;53.042;6.406;2022-11-30T16:20:43;52.08;;;22.60;;
54263;SDS011;40178;53.042;6.406;2022-11-30T16:23:13;50.75;;;23.63;;
54263;SDS011;40178;53.042;6.406;2022-11-30T16:25:40;52.92;;;24.08;;
54263;SDS011;40178;53.042;6.406;2022-11-30T16:28:08;53.20;;;24.02;;
54263;SDS011;40178;53.042;6.406;2022-11-30T16:30:35;52.00;;;23.95;;